createdAt,value
2023-04-09T00:04:10.943Z,80.32
2023-04-09T00:14:32.403Z,80.01
2023-04-09T00:24:53.814Z,79.81
2023-04-09T00:35:16.229Z,80.67
2023-04-09T00:45:37.945Z,80.79
2023-04-09T00:55:59.352Z,80.81
2023-04-09T01:06:27.061Z,80.74
2023-04-09T01:16:52.760Z,81.70
2023-04-09T01:27:14.978Z,82.08
2023-04-09T01:37:37.620Z,81.91
2023-04-09T01:47:59.547Z,82.25
2023-04-09T01:58:21.009Z,82.57
2023-04-09T02:08:47.595Z,83.02
2023-04-09T02:19:08.966Z,82.24
2023-04-09T02:29:30.689Z,83.30
2023-04-09T02:39:52.060Z,82.37
2023-04-09T02:50:13.406Z,82.86
2023-04-09T03:00:34.776Z,82.62
2023-04-09T03:10:56.116Z,83.16
2023-04-09T03:21:17.454Z,82.41
2023-04-09T03:31:38.881Z,83.33
2023-04-09T03:42:01.740Z,83.05
2023-04-09T03:52:23.126Z,82.54
2023-04-09T04:02:44.656Z,83.05
2023-04-09T04:13:06.558Z,83.47
2023-04-09T04:23:27.968Z,82.89
2023-04-09T04:33:49.327Z,83.06
2023-04-09T04:44:10.690Z,83.43
2023-04-09T04:54:32.021Z,83.03
2023-04-09T05:04:53.380Z,82.92
2023-04-09T05:15:14.735Z,81.98
2023-04-09T05:25:36.411Z,82.96
2023-04-09T05:35:57.845Z,83.62
2023-04-09T05:46:19.347Z,82.93
2023-04-09T05:56:42.535Z,82.81
2023-04-09T06:07:03.931Z,82.07
2023-04-09T06:17:25.318Z,81.93
2023-04-09T06:27:46.725Z,80.03
2023-04-09T06:38:10.053Z,79.00
2023-04-09T06:48:31.473Z,77.81
2023-04-09T06:58:52.812Z,76.97
2023-04-09T07:09:14.154Z,77.58
2023-04-09T07:19:35.596Z,76.15
2023-04-09T07:29:57.905Z,76.53
2023-04-09T07:40:19.905Z,74.73
2023-04-09T07:50:41.242Z,75.55
2023-04-09T08:01:02.637Z,75.63
2023-04-09T08:11:25.939Z,74.41
2023-04-09T08:21:50.338Z,74.35
2023-04-09T08:32:12.678Z,75.12
2023-04-09T08:42:34.501Z,73.46
2023-04-09T08:52:56.947Z,73.32
2023-04-09T09:03:18.496Z,73.06
2023-04-09T09:13:39.942Z,72.18
2023-04-09T09:24:01.314Z,69.95
2023-04-09T09:34:23.493Z,70.89
2023-04-09T09:44:44.834Z,69.45
2023-04-09T09:55:06.519Z,69.91
2023-04-09T10:05:29.381Z,68.36
2023-04-09T10:15:51.921Z,68.16
2023-04-09T10:26:13.597Z,68.38
2023-04-09T10:36:36.176Z,67.35
2023-04-09T10:46:58.067Z,67.31
2023-04-09T10:57:21.509Z,66.14
2023-04-09T11:07:54.783Z,65.67
2023-04-09T11:18:23.505Z,66.70
2023-04-09T11:28:44.885Z,64.15
2023-04-09T11:39:06.530Z,64.12
2023-04-09T11:49:28.034Z,60.42
2023-04-09T11:59:49.574Z,61.79
2023-04-09T12:10:11.254Z,57.39
2023-04-09T12:20:32.610Z,63.50
2023-04-09T12:30:54.474Z,61.51
2023-04-09T12:41:16.430Z,60.63
2023-04-09T12:51:37.936Z,61.39
2023-04-09T13:01:59.437Z,55.51
2023-04-09T13:12:21.603Z,59.84
2023-04-09T13:22:42.993Z,58.56
2023-04-09T13:33:04.442Z,57.95
2023-04-09T13:43:28.090Z,59.32
2023-04-09T13:53:49.829Z,57.91
2023-04-09T14:04:11.223Z,59.89
2023-04-09T14:14:32.666Z,52.94
2023-04-09T14:24:54.025Z,57.10
2023-04-09T14:35:15.582Z,51.31
2023-04-09T14:45:37.095Z,58.96
2023-04-09T14:55:58.480Z,54.54
2023-04-09T15:06:20.240Z,55.04
2023-04-09T15:16:41.749Z,60.58
2023-04-09T15:27:03.233Z,56.54
2023-04-09T15:37:24.772Z,58.48
2023-04-09T15:47:46.757Z,56.68
2023-04-09T15:58:08.232Z,56.85
2023-04-09T16:08:29.613Z,49.09
2023-04-09T16:18:51.485Z,57.85
2023-04-09T16:29:13.250Z,55.50
2023-04-09T16:39:34.676Z,56.58
2023-04-09T16:49:56.342Z,58.05
2023-04-09T17:00:18.090Z,58.05
2023-04-09T17:10:39.489Z,57.86
2023-04-09T17:21:00.863Z,55.81
2023-04-09T17:31:24.193Z,56.92
2023-04-09T17:41:45.893Z,56.72
2023-04-09T17:52:09.035Z,59.65
2023-04-09T18:02:34.691Z,59.70
2023-04-09T18:12:56.401Z,60.02
2023-04-09T18:23:18.143Z,61.15
2023-04-09T18:33:39.522Z,60.94
2023-04-09T18:44:00.913Z,58.97
2023-04-09T18:54:22.577Z,61.38
2023-04-09T19:04:45.024Z,62.70
2023-04-09T19:15:06.815Z,61.60
2023-04-09T19:25:28.907Z,63.36
2023-04-09T19:35:50.935Z,63.53
2023-04-09T19:46:12.362Z,63.53
2023-04-09T19:56:33.972Z,64.93
2023-04-09T20:06:55.497Z,64.51
2023-04-09T20:17:19.767Z,65.12
2023-04-09T20:27:41.191Z,65.57
2023-04-09T20:38:02.612Z,65.66
2023-04-09T20:48:24.000Z,66.51
2023-04-09T20:58:45.349Z,66.97
2023-04-09T21:09:06.684Z,67.75
2023-04-09T21:19:28.142Z,68.06
2023-04-09T21:29:49.560Z,68.65
2023-04-09T21:40:11.110Z,69.13
2023-04-09T21:50:33.080Z,69.49
2023-04-09T22:00:54.457Z,69.70
2023-04-09T22:11:16.346Z,69.31
2023-04-09T22:21:37.711Z,69.51
2023-04-09T22:31:59.132Z,70.00
2023-04-09T22:42:20.497Z,69.69
2023-04-09T22:52:44.984Z,69.71
2023-04-09T23:03:06.528Z,70.03
2023-04-09T23:13:28.056Z,69.73
2023-04-09T23:23:49.456Z,69.41
2023-04-09T23:34:10.802Z,69.79
2023-04-09T23:44:32.361Z,69.73
2023-04-09T23:54:54.002Z,69.88
